sensor_id;sensor_type;location;lat;lon;timestamp;pressure;altitude;pressure_sealevel;temperature;humidity
19811;BME280;10065;49.632;8.346;2023-07-24T07:38:05;99556.00;;;23.68;56.86
19811;BME280;10065;49.632;8.346;2023-07-24T07:43:19;99563.66;;;23.49;58.05
19811;BME280;10065;49.632;8.346;2023-07-24T08:04:37;99554.41;;;23.23;59.82
19811;BME280;10065;49.632;8.346;2023-07-24T08:33:02;99514.44;;;23.52;59.58
19811;BME280;10065;49.632;8.346;2023-07-24T08:39:53;99525.88;;;23.59;60.26
19811;BME280;10065;49.632;8.346;2023-07-24T08:43:27;99544.06;;;23.63;60.22
19811;BME280;10065;49.632;8.346;2023-07-24T08:47:06;99552.84;;;23.76;59.53
19811;BME280;10065;49.632;8.346;2023-07-24T08:50:31;99553.47;;;23.83;59.69
19811;BME280;10065;49.632;8.346;2023-07-24T09:20:18;99455.97;;;24.20;58.06
19811;BME280;10065;49.632;8.346;2023-07-24T10:22:32;99473.53;;;24.54;54.84
19811;BME280;10065;49.632;8.346;2023-07-24T10:26:03;99467.34;;;24.64;54.37
19811;BME280;10065;49.632;8.346;2023-07-24T10:59:41;99441.09;;;25.82;46.75
19811;BME280;10065;49.632;8.346;2023-07-24T11:02:09;99440.28;;;25.72;45.45
19811;BME280;10065;49.632;8.346;2023-07-24T11:04:39;99445.69;;;25.72;45.36
19811;BME280;10065;49.632;8.346;2023-07-24T11:07:10;99438.38;;;25.67;45.65
19811;BME280;10065;49.632;8.346;2023-07-24T11:09:47;99448.97;;;25.64;46.15
19811;BME280;10065;49.632;8.346;2023-07-24T11:12:38;99455.75;;;25.61;46.06
19811;BME280;10065;49.632;8.346;2023-07-24T11:19:09;99453.00;;;25.41;46.79
19811;BME280;10065;49.632;8.346;2023-07-24T11:39:22;99429.94;;;25.59;48.40
19811;BME280;10065;49.632;8.346;2023-07-24T11:41:59;99413.63;;;25.54;48.28
19811;BME280;10065;49.632;8.346;2023-07-24T11:45:00;99408.22;;;25.59;48.48
19811;BME280;10065;49.632;8.346;2023-07-24T11:47:29;99406.31;;;25.49;48.46
19811;BME280;10065;49.632;8.346;2023-07-24T11:50:02;99410.38;;;25.57;48.25
19811;BME280;10065;49.632;8.346;2023-07-24T11:52:51;99399.81;;;25.70;47.68
19811;BME280;10065;49.632;8.346;2023-07-24T11:59:28;99417.16;;;25.54;48.56
19811;BME280;10065;49.632;8.346;2023-07-24T12:02:14;99396.00;;;25.51;48.95
19811;BME280;10065;49.632;8.346;2023-07-24T12:22:37;99387.81;;;26.07;53.54
19811;BME280;10065;49.632;8.346;2023-07-24T12:25:06;99374.50;;;26.05;54.32
19811;BME280;10065;49.632;8.346;2023-07-24T12:27:52;99388.09;;;26.10;55.36
19811;BME280;10065;49.632;8.346;2023-07-24T12:30:26;99367.38;;;26.24;54.71
19811;BME280;10065;49.632;8.346;2023-07-24T12:33:04;99367.94;;;26.21;54.12
19811;BME280;10065;49.632;8.346;2023-07-24T12:35:32;99348.63;;;26.23;54.23
19811;BME280;10065;49.632;8.346;2023-07-24T12:38:02;99341.84;;;26.36;54.87
19811;BME280;10065;49.632;8.346;2023-07-24T12:40:31;99361.91;;;26.40;54.79
19811;BME280;10065;49.632;8.346;2023-07-24T12:43:02;99349.41;;;26.44;53.86
19811;BME280;10065;49.632;8.346;2023-07-24T12:46:11;99354.00;;;26.48;53.49
19811;BME280;10065;49.632;8.346;2023-07-24T12:49:23;99359.78;;;26.37;53.94
19811;BME280;10065;49.632;8.346;2023-07-24T12:51:51;99362.19;;;26.43;53.41
19811;BME280;10065;49.632;8.346;2023-07-24T12:54:25;99357.91;;;26.27;54.30
19811;BME280;10065;49.632;8.346;2023-07-24T12:57:20;99342.69;;;26.16;55.56
19811;BME280;10065;49.632;8.346;2023-07-24T12:59:53;99341.63;;;26.12;56.04
19811;BME280;10065;49.632;8.346;2023-07-24T13:02:27;99348.19;;;25.96;56.70
19811;BME280;10065;49.632;8.346;2023-07-24T13:05:21;99346.59;;;25.84;58.54
19811;BME280;10065;49.632;8.346;2023-07-24T13:07:52;99347.66;;;25.89;58.86
19811;BME280;10065;49.632;8.346;2023-07-24T13:10:26;99340.84;;;25.96;58.88
19811;BME280;10065;49.632;8.346;2023-07-24T13:12:57;99331.91;;;25.91;59.20
19811;BME280;10065;49.632;8.346;2023-07-24T13:15:41;99333.00;;;25.79;59.80
19811;BME280;10065;49.632;8.346;2023-07-24T13:18:37;99329.50;;;25.84;59.57
19811;BME280;10065;49.632;8.346;2023-07-24T13:24:20;99313.75;;;25.56;61.58
19811;BME280;10065;49.632;8.346;2023-07-24T13:27:09;99304.25;;;25.53;61.02
19811;BME280;10065;49.632;8.346;2023-07-24T13:30:38;99304.25;;;25.83;64.12
19811;BME280;10065;49.632;8.346;2023-07-24T13:35:53;99312.63;;;25.92;63.56
19811;BME280;10065;49.632;8.346;2023-07-24T13:46:09;99299.13;;;25.46;58.83
19811;BME280;10065;49.632;8.346;2023-07-24T13:49:03;99285.84;;;25.40;58.79
19811;BME280;10065;49.632;8.346;2023-07-24T13:51:48;99291.50;;;25.54;58.58
19811;BME280;10065;49.632;8.346;2023-07-24T13:54:39;99282.03;;;25.66;57.01
19811;BME280;10065;49.632;8.346;2023-07-24T13:58:05;99293.97;;;25.65;56.66
19811;BME280;10065;49.632;8.346;2023-07-24T14:15:53;99302.66;;;25.27;56.88
19811;BME280;10065;49.632;8.346;2023-07-24T14:18:47;99298.88;;;25.23;57.14
19811;BME280;10065;49.632;8.346;2023-07-24T14:21:32;99298.63;;;25.24;57.41
19811;BME280;10065;49.632;8.346;2023-07-24T14:24:16;99296.16;;;25.28;57.55
19811;BME280;10065;49.632;8.346;2023-07-24T14:30:20;99299.38;;;25.55;57.42
19811;BME280;10065;49.632;8.346;2023-07-24T14:33:11;99293.16;;;25.65;56.90
19811;BME280;10065;49.632;8.346;2023-07-24T14:35:43;99311.06;;;25.66;56.49
19811;BME280;10065;49.632;8.346;2023-07-24T14:38:18;99301.28;;;25.70;56.36
19811;BME280;10065;49.632;8.346;2023-07-24T14:41:57;99294.50;;;25.72;57.39
19811;BME280;10065;49.632;8.346;2023-07-24T14:47:39;99305.38;;;25.62;59.02
19811;BME280;10065;49.632;8.346;2023-07-24T14:50:12;99294.25;;;25.48;57.10
19811;BME280;10065;49.632;8.346;2023-07-24T14:52:43;99301.31;;;25.49;56.86
19811;BME280;10065;49.632;8.346;2023-07-24T14:55:28;99298.84;;;25.48;57.84
19811;BME280;10065;49.632;8.346;2023-07-24T14:57:57;99301.56;;;25.63;58.64
19811;BME280;10065;49.632;8.346;2023-07-24T15:00:25;99289.09;;;25.47;59.40
19811;BME280;10065;49.632;8.346;2023-07-24T15:02:56;99293.97;;;25.35;61.04
19811;BME280;10065;49.632;8.346;2023-07-24T15:08:54;99279.63;;;24.94;65.58
19811;BME280;10065;49.632;8.346;2023-07-24T15:11:50;99293.41;;;24.82;67.54
19811;BME280;10065;49.632;8.346;2023-07-24T15:14:19;99293.94;;;24.79;66.93
19811;BME280;10065;49.632;8.346;2023-07-24T15:17:00;99292.59;;;24.77;66.02
19811;BME280;10065;49.632;8.346;2023-07-24T15:19:37;99300.44;;;24.78;66.54
19811;BME280;10065;49.632;8.346;2023-07-24T15:22:11;99296.09;;;24.82;66.63
19811;BME280;10065;49.632;8.346;2023-07-24T15:24:46;99291.25;;;24.79;66.77
19811;BME280;10065;49.632;8.346;2023-07-24T15:27:30;99290.69;;;24.82;66.76
19811;BME280;10065;49.632;8.346;2023-07-24T15:31:09;99296.66;;;24.89;66.13
19811;BME280;10065;49.632;8.346;2023-07-24T15:35:33;99314.03;;;24.98;67.09
19811;BME280;10065;49.632;8.346;2023-07-24T15:37:36;99308.66;;;25.14;64.85
19811;BME280;10065;49.632;8.346;2023-07-24T15:41:06;99305.91;;;25.19;62.38
19811;BME280;10065;49.632;8.346;2023-07-24T15:47:24;99325.75;;;25.24;57.39
19811;BME280;10065;49.632;8.346;2023-07-24T15:58:13;99314.63;;;25.05;53.98
19811;BME280;10065;49.632;8.346;2023-07-24T16:02:08;99306.19;;;25.12;54.20
19811;BME280;10065;49.632;8.346;2023-07-24T16:05:25;99311.34;;;25.14;54.69
19811;BME280;10065;49.632;8.346;2023-07-24T16:08:39;99310.25;;;25.09;53.39
19811;BME280;10065;49.632;8.346;2023-07-24T16:11:43;99320.56;;;25.07;53.58
19811;BME280;10065;49.632;8.346;2023-07-24T16:14:29;99312.41;;;25.07;53.11
19811;BME280;10065;49.632;8.346;2023-07-24T16:18:09;99318.13;;;25.06;53.11
19811;BME280;10065;49.632;8.346;2023-07-24T16:21:23;99318.41;;;25.04;52.58
19811;BME280;10065;49.632;8.346;2023-07-24T16:38:22;99321.41;;;24.98;49.59
19811;BME280;10065;49.632;8.346;2023-07-24T16:52:52;99336.28;;;25.00;49.04
19811;BME280;10065;49.632;8.346;2023-07-24T17:02:46;99342.25;;;25.07;49.22
19811;BME280;10065;49.632;8.346;2023-07-24T17:10:04;99347.69;;;25.13;48.98
19811;BME280;10065;49.632;8.346;2023-07-24T17:13:05;99358.53;;;25.07;48.55
19811;BME280;10065;49.632;8.346;2023-07-24T17:19:25;99370.47;;;24.96;49.01
19811;BME280;10065;49.632;8.346;2023-07-24T17:51:38;99383.63;;;24.67;49.94
19811;BME280;10065;49.632;8.346;2023-07-24T17:55:22;99379.25;;;24.56;49.68
19811;BME280;10065;49.632;8.346;2023-07-24T18:01:25;99391.41;;;24.44;48.46
19811;BME280;10065;49.632;8.346;2023-07-24T18:04:41;99387.03;;;24.37;47.74
19811;BME280;10065;49.632;8.346;2023-07-24T18:14:42;99396.69;;;24.18;45.95
19811;BME280;10065;49.632;8.346;2023-07-24T18:21:45;99395.53;;;24.09;43.64
19811;BME280;10065;49.632;8.346;2023-07-24T18:24:57;99393.88;;;24.03;43.20
19811;BME280;10065;49.632;8.346;2023-07-24T20:25:44;99508.53;;;22.84;46.20
